Time;durP1;ratioP1;P1;durP2;ratioP2;P2;SDS_P1;SDS_P2;PMS_P1;PMS_P2;Temp;Humidity;BMP_temperature;BMP_pressure;BME280_temperature;BME280_humidity;BME280_pressure;Samples;Min_cycle;Max_cycle;Signal;HPM_P1;HPM_P2
2023/04/04 00:01:15;;;;;;;0.30;0.30;;;0.90;99.90;;;;;;5072731;28;20419;-83
2023/04/04 00:03:41;;;;;;;0.30;0.30;;;0.90;99.90;;;;;;5072409;28;20424;-84
2023/04/04 00:06:08;;;;;;;0.67;0.67;;;0.80;99.90;;;;;;5072568;28;20460;-83
2023/04/04 00:08:35;;;;;;;0.40;0.40;;;0.80;99.90;;;;;;5072629;28;20424;-83
2023/04/04 00:11:05;;;;;;;0.37;0.30;;;0.70;99.90;;;;;;5073622;28;20887;-83
2023/04/04 00:13:33;;;;;;;0.50;0.50;;;0.70;99.90;;;;;;5076408;28;20488;-83
2023/04/04 00:15:59;;;;;;;0.40;0.30;;;0.70;99.90;;;;;;5076133;28;20449;-83
2023/04/04 00:18:26;;;;;;;0.40;0.40;;;0.70;99.90;;;;;;5075764;28;20439;-83
2023/04/04 00:20:53;;;;;;;0.33;0.30;;;0.80;99.90;;;;;;5075625;28;20973;-84
2023/04/04 00:23:20;;;;;;;0.43;0.43;;;0.70;99.90;;;;;;5075671;28;20446;-83
2023/04/04 00:25:49;;;;;;;0.30;0.30;;;0.70;99.90;;;;;;5075549;28;20451;-83
2023/04/04 00:28:17;;;;;;;0.30;0.30;;;0.60;99.90;;;;;;5075926;28;20449;-83
2023/04/04 00:30:44;;;;;;;0.40;0.40;;;0.60;99.90;;;;;;5075451;28;20444;-83
2023/04/04 00:33:11;;;;;;;0.40;0.40;;;0.60;99.90;;;;;;5075759;28;20873;-83
2023/04/04 00:35:38;;;;;;;0.30;0.30;;;0.70;99.90;;;;;;5075809;28;20449;-83
2023/04/04 00:38:05;;;;;;;0.40;0.40;;;0.60;99.90;;;;;;5075404;28;20820;-83
2023/04/04 00:40:31;;;;;;;0.30;0.30;;;0.60;99.90;;;;;;5075603;28;20470;-83
2023/04/04 00:43:00;;;;;;;0.50;0.50;;;0.60;99.90;;;;;;5075621;28;20461;-83
2023/04/04 00:45:30;;;;;;;0.30;0.30;;;0.60;99.90;;;;;;5075089;28;20453;-78
2023/04/04 00:47:58;;;;;;;5.80;1.07;;;0.60;99.90;;;;;;5075484;28;20522;-77
2023/04/04 00:50:25;;;;;;;0.30;0.30;;;0.60;99.90;;;;;;5075111;28;20955;-77
2023/04/04 00:52:51;;;;;;;1.90;0.67;;;0.50;99.90;;;;;;5075412;28;20445;-77
2023/04/04 00:55:18;;;;;;;0.40;0.40;;;0.50;99.90;;;;;;5075409;28;20423;-83
2023/04/04 00:57:45;;;;;;;0.30;0.30;;;0.50;99.90;;;;;;5075388;28;20427;-83
2023/04/04 01:00:14;;;;;;;0.40;0.40;;;0.40;99.90;;;;;;5074932;28;20470;-77
2023/04/04 01:02:42;;;;;;;0.30;0.30;;;0.40;99.90;;;;;;5075223;28;20453;-77
2023/04/04 01:05:10;;;;;;;1.00;0.50;;;0.40;99.90;;;;;;5075197;28;20431;-77
2023/04/04 01:07:36;;;;;;;0.40;0.40;;;0.40;99.90;;;;;;5074764;28;20473;-77
2023/04/04 01:10:04;;;;;;;0.67;0.50;;;0.40;99.90;;;;;;5074882;28;20457;-77
2023/04/04 01:12:31;;;;;;;0.43;0.40;;;0.40;99.90;;;;;;5075059;28;20427;-77
2023/04/04 01:14:58;;;;;;;2.43;0.50;;;0.40;99.90;;;;;;5075041;28;20445;-77
2023/04/04 01:17:26;;;;;;;0.47;0.47;;;0.30;99.90;;;;;;5074708;28;20789;-78
2023/04/04 01:20:02;;;;;;;0.37;0.30;;;0.30;99.90;;;;;;5074848;28;20469;-77
2023/04/04 01:22:31;;;;;;;0.30;0.30;;;0.30;99.90;;;;;;5074534;28;20429;-77
2023/04/04 01:25:00;;;;;;;0.30;0.30;;;0.20;99.90;;;;;;5074833;28;20416;-77
2023/04/04 01:27:28;;;;;;;0.50;0.50;;;0.20;99.90;;;;;;5074681;28;20587;-77
2023/04/04 01:29:55;;;;;;;0.40;0.40;;;0.20;99.90;;;;;;5074705;28;20443;-77
2023/04/04 01:32:28;;;;;;;0.30;0.30;;;0.20;99.90;;;;;;5074636;28;20449;-77
2023/04/04 01:35:01;;;;;;;0.30;0.30;;;0.20;99.90;;;;;;5074326;28;20935;-77
2023/04/04 01:37:35;;;;;;;0.40;0.40;;;0.20;99.90;;;;;;5074262;28;20487;-77
2023/04/04 01:40:09;;;;;;;0.40;0.40;;;0.10;99.90;;;;;;5074445;28;20538;-77
2023/04/04 01:42:39;;;;;;;0.30;0.30;;;0.10;99.90;;;;;;5074497;28;20404;-77
2023/04/04 01:45:08;;;;;;;0.37;0.30;;;0.10;99.90;;;;;;5074414;28;20442;-77
2023/04/04 01:47:38;;;;;;;2.70;1.63;;;0.10;99.90;;;;;;5073775;28;20844;-77
2023/04/04 01:50:06;;;;;;;0.40;0.40;;;0.10;99.90;;;;;;5074297;28;20448;-77
2023/04/04 01:52:33;;;;;;;0.30;0.30;;;0.10;99.90;;;;;;5073953;28;20942;-78
2023/04/04 01:55:00;;;;;;;0.93;0.60;;;0.10;99.90;;;;;;5074191;28;20445;-77
2023/04/04 01:57:27;;;;;;;0.33;0.33;;;0.10;99.90;;;;;;5074150;28;20420;-78
2023/04/04 01:59:55;;;;;;;0.30;0.30;;;0.00;99.90;;;;;;5073825;28;20431;-77
2023/04/04 02:02:22;;;;;;;0.40;0.40;;;0.10;99.90;;;;;;5074050;28;20545;-77
2023/04/04 02:04:48;;;;;;;0.30;0.30;;;0.10;99.90;;;;;;5074019;28;20460;-78
2023/04/04 02:07:15;;;;;;;0.30;0.30;;;0.10;99.90;;;;;;5073873;28;20474;-78
2023/04/04 02:09:42;;;;;;;0.70;0.53;;;0.10;99.90;;;;;;5073932;28;20493;-78
2023/04/04 02:12:09;;;;;;;0.30;0.30;;;0.10;99.90;;;;;;5073522;28;20816;-78
2023/04/04 02:14:36;;;;;;;0.30;0.30;;;0.00;99.90;;;;;;5073863;28;20424;-77
2023/04/04 02:17:04;;;;;;;0.40;0.40;;;0.00;99.90;;;;;;5073795;28;20424;-77
2023/04/04 02:19:32;;;;;;;0.70;0.40;;;0.00;99.90;;;;;;5073685;28;20488;-77
2023/04/04 02:21:59;;;;;;;0.40;0.40;;;0.00;99.90;;;;;;5073748;28;20806;-78
2023/04/04 02:24:26;;;;;;;0.57;0.57;;;0.00;99.90;;;;;;5073669;28;20453;-77
2023/04/04 02:26:53;;;;;;;0.40;0.40;;;-0.10;99.90;;;;;;5073616;28;20477;-77
2023/04/04 02:29:19;;;;;;;0.70;0.70;;;-0.10;99.90;;;;;;5073562;28;20443;-77
2023/04/04 02:31:46;;;;;;;0.30;0.30;;;-0.10;99.90;;;;;;5073625;28;20420;-77
2023/04/04 02:34:14;;;;;;;0.30;0.30;;;-0.10;99.90;;;;;;5072749;28;20916;-77
2023/04/04 02:36:41;;;;;;;0.73;0.73;;;-0.10;99.90;;;;;;5073534;28;20431;-77
2023/04/04 02:39:08;;;;;;;0.30;0.30;;;-0.10;99.90;;;;;;5073440;28;20471;-77
2023/04/04 02:41:35;;;;;;;3.10;0.60;;;-0.10;99.90;;;;;;5073468;28;20456;-77
2023/04/04 02:44:01;;;;;;;0.50;0.50;;;-0.10;99.90;;;;;;5073141;28;20946;-77
2023/04/04 02:46:28;;;;;;;7.40;1.07;;;-0.10;99.90;;;;;;5072781;28;20983;-77
2023/04/04 02:48:55;;;;;;;0.30;0.30;;;-0.10;99.90;;;;;;5073371;28;20446;-79
2023/04/04 02:51:23;;;;;;;0.47;0.40;;;-0.20;99.90;;;;;;5073401;28;20442;-79
2023/04/04 02:53:50;;;;;;;0.30;0.30;;;-0.20;99.90;;;;;;5073030;28;20445;-79
2023/04/04 02:56:16;;;;;;;0.30;0.30;;;-0.20;99.90;;;;;;5073304;28;20454;-79
2023/04/04 02:58:43;;;;;;;0.33;0.33;;;-0.10;99.90;;;;;;5072926;28;20445;-79
2023/04/04 03:01:10;;;;;;;0.50;0.50;;;-0.20;99.90;;;;;;5073284;28;20445;-79
2023/04/04 03:03:37;;;;;;;0.30;0.30;;;-0.10;99.90;;;;;;5073271;28;20431;-77
2023/04/04 03:06:03;;;;;;;0.30;0.30;;;-0.20;99.90;;;;;;5072984;28;20936;-77
2023/04/04 03:08:31;;;;;;;0.67;0.40;;;-0.20;99.90;;;;;;5072840;28;21022;-77
2023/04/04 03:10:58;;;;;;;0.30;0.27;;;-0.20;99.90;;;;;;5073118;28;20477;-77
2023/04/04 03:13:25;;;;;;;0.30;0.30;;;-0.20;99.90;;;;;;5073158;28;20447;-77
2023/04/04 03:15:59;;;;;;;0.40;0.40;;;-0.20;99.90;;;;;;5073168;28;20424;-77
2023/04/04 03:18:26;;;;;;;0.40;0.40;;;-0.20;99.90;;;;;;5073155;28;20444;-77
2023/04/04 03:20:53;;;;;;;0.30;0.30;;;-0.20;99.90;;;;;;5073059;28;20440;-77
2023/04/04 03:23:19;;;;;;;0.30;0.30;;;-0.20;99.90;;;;;;5072718;28;20949;-77
2023/04/04 03:25:47;;;;;;;6.80;0.53;;;-0.20;99.90;;;;;;5072760;28;20446;-77
2023/04/04 03:28:14;;;;;;;0.30;0.30;;;-0.30;99.90;;;;;;5072971;28;20483;-77
2023/04/04 03:30:41;;;;;;;0.30;0.30;;;-0.40;99.90;;;;;;5072748;28;20846;-77
2023/04/04 03:33:08;;;;;;;0.77;0.77;;;-0.40;99.90;;;;;;5072940;28;20453;-77
2023/04/04 03:35:38;;;;;;;0.70;0.60;;;-0.30;99.90;;;;;;5072972;28;20461;-77
2023/04/04 03:38:05;;;;;;;0.60;0.60;;;-0.30;99.90;;;;;;5072964;28;20446;-77
2023/04/04 03:40:32;;;;;;;0.40;0.40;;;-0.30;99.90;;;;;;5072494;28;21003;-77
2023/04/04 03:43:01;;;;;;;0.50;0.40;;;-0.30;99.90;;;;;;5072539;28;20428;-77
2023/04/04 03:45:28;;;;;;;0.40;0.40;;;-0.40;99.90;;;;;;5072925;28;20836;-77
2023/04/04 03:47:55;;;;;;;0.40;0.40;;;-0.40;99.90;;;;;;5076581;28;20472;-77
2023/04/04 03:50:22;;;;;;;0.40;0.40;;;-0.40;99.90;;;;;;5076221;28;20436;-77
2023/04/04 03:52:48;;;;;;;1.07;0.63;;;-0.40;99.90;;;;;;5076495;28;20449;-76
2023/04/04 03:55:15;;;;;;;0.30;0.30;;;-0.40;99.90;;;;;;5076178;28;20968;-77
2023/04/04 03:57:42;;;;;;;0.40;0.30;;;-0.40;99.90;;;;;;5077012;28;20477;-77
2023/04/04 04:00:12;;;;;;;0.40;0.40;;;-0.50;99.90;;;;;;5076329;28;20474;-76
2023/04/04 04:02:38;;;;;;;3.23;0.80;;;-0.50;99.90;;;;;;5076041;28;20449;-76
2023/04/04 04:05:05;;;;;;;0.30;0.30;;;-0.50;99.90;;;;;;5076030;28;20966;-76
2023/04/04 04:07:32;;;;;;;0.30;0.30;;;-0.60;99.90;;;;;;5076186;28;20467;-76
2023/04/04 04:09:59;;;;;;;0.53;0.40;;;-0.60;99.90;;;;;;5075829;28;21011;-76
2023/04/04 04:12:26;;;;;;;0.30;0.30;;;-0.60;99.90;;;;;;5076194;28;20461;-76
2023/04/04 04:14:52;;;;;;;1.33;0.80;;;-0.60;99.90;;;;;;5075830;28;20820;-77
2023/04/04 04:17:21;;;;;;;0.30;0.30;;;-0.50;99.90;;;;;;5076131;28;20445;-76
2023/04/04 04:19:47;;;;;;;0.83;0.83;;;-0.50;99.90;;;;;;5076049;28;20543;-76
2023/04/04 04:22:14;;;;;;;0.30;0.27;;;-0.50;99.90;;;;;;5076090;28;20445;-77
2023/04/04 04:24:41;;;;;;;0.30;0.30;;;-0.50;99.90;;;;;;5075933;28;20515;-76
2023/04/04 04:27:07;;;;;;;0.30;0.30;;;-0.60;99.90;;;;;;5075577;28;21034;-76
2023/04/04 04:29:34;;;;;;;0.40;0.40;;;-0.60;99.90;;;;;;5075818;28;20462;-76
2023/04/04 04:32:01;;;;;;;0.40;0.40;;;-0.60;99.90;;;;;;5075863;28;20421;-76
2023/04/04 04:34:29;;;;;;;0.40;0.40;;;-0.70;99.90;;;;;;5075770;28;20511;-76
2023/04/04 04:36:56;;;;;;;0.43;0.43;;;-0.70;99.90;;;;;;5075770;28;20428;-76
2023/04/04 04:39:23;;;;;;;0.40;0.40;;;-0.60;99.90;;;;;;5075608;28;20440;-76
2023/04/04 04:41:50;;;;;;;0.30;0.30;;;-0.60;99.90;;;;;;5075689;28;20484;-76
2023/04/04 04:44:17;;;;;;;0.33;0.33;;;-0.60;99.90;;;;;;5075319;28;20423;-76
2023/04/04 04:46:43;;;;;;;0.60;0.40;;;-0.70;99.90;;;;;;5075191;28;20576;-76
2023/04/04 04:49:10;;;;;;;0.50;0.50;;;-0.70;99.90;;;;;;5075363;28;20460;-76
2023/04/04 04:51:39;;;;;;;0.40;0.40;;;-0.70;99.90;;;;;;5075438;28;20461;-76
2023/04/04 04:54:05;;;;;;;0.30;0.30;;;-0.70;99.90;;;;;;5075101;28;20991;-76
2023/04/04 04:56:32;;;;;;;0.60;0.60;;;-0.60;99.90;;;;;;5074637;28;20441;-76
2023/04/04 04:58:59;;;;;;;0.60;0.40;;;-0.70;99.90;;;;;;5075259;28;20449;-76
2023/04/04 05:01:26;;;;;;;3.27;0.90;;;-0.70;99.90;;;;;;5075292;28;20428;-76
2023/04/04 05:03:53;;;;;;;3.90;0.60;;;-0.70;99.90;;;;;;5075255;28;20823;-76
2023/04/04 05:06:19;;;;;;;0.40;0.40;;;-0.60;99.90;;;;;;5075121;28;20423;-76
2023/04/04 05:08:47;;;;;;;0.30;0.20;;;-0.60;99.90;;;;;;5074999;28;20456;-76
2023/04/04 05:11:14;;;;;;;0.50;0.50;;;-0.70;99.90;;;;;;5074774;28;20452;-76
2023/04/04 05:13:41;;;;;;;0.63;0.63;;;-0.70;99.90;;;;;;5075021;28;20445;-76
2023/04/04 05:16:07;;;;;;;0.30;0.20;;;-0.60;99.90;;;;;;5075034;28;20453;-76
2023/04/04 05:18:34;;;;;;;0.40;0.37;;;-0.60;99.90;;;;;;5074906;28;20536;-76
2023/04/04 05:21:01;;;;;;;0.50;0.50;;;-0.60;99.90;;;;;;5074835;28;20477;-76
2023/04/04 05:23:28;;;;;;;1.03;0.70;;;-0.60;99.90;;;;;;5074825;28;20424;-82
2023/04/04 05:25:56;;;;;;;0.30;0.30;;;-0.60;99.90;;;;;;5074804;28;20457;-81
2023/04/04 05:28:22;;;;;;;1.77;0.77;;;-0.50;99.90;;;;;;5074690;28;20485;-82
2023/04/04 05:30:49;;;;;;;0.50;0.30;;;-0.60;99.90;;;;;;5074329;28;20983;-81
2023/04/04 05:33:16;;;;;;;0.40;0.40;;;-0.60;99.90;;;;;;5074591;28;20427;-82
2023/04/04 05:35:43;;;;;;;0.37;0.37;;;-0.60;99.90;;;;;;5074266;28;20446;-81
2023/04/04 05:38:09;;;;;;;0.57;0.57;;;-0.60;99.90;;;;;;5074523;28;20450;-82
2023/04/04 05:40:36;;;;;;;0.50;0.50;;;-0.50;99.90;;;;;;5074415;28;20451;-81
2023/04/04 05:43:05;;;;;;;0.40;0.40;;;-0.50;99.90;;;;;;5074058;28;20416;-81
2023/04/04 05:45:32;;;;;;;2.27;0.70;;;-0.50;99.90;;;;;;5074114;28;20532;-80
2023/04/04 05:47:58;;;;;;;0.30;0.30;;;-0.40;99.90;;;;;;5073970;28;21000;-80
2023/04/04 05:50:25;;;;;;;0.70;0.40;;;-0.40;99.90;;;;;;5074243;28;20444;-81
2023/04/04 05:52:54;;;;;;;0.70;0.70;;;-0.40;99.90;;;;;;5073938;28;20423;-81
2023/04/04 05:55:20;;;;;;;0.30;0.30;;;-0.40;99.90;;;;;;5074198;28;20494;-81
2023/04/04 05:57:48;;;;;;;2.20;1.03;;;-0.30;99.90;;;;;;5074231;28;20445;-81
2023/04/04 06:00:18;;;;;;;0.30;0.30;;;-0.30;99.90;;;;;;5074077;28;20444;-81
2023/04/04 06:02:45;;;;;;;0.83;0.40;;;-0.20;99.90;;;;;;5073762;28;20441;-81
2023/04/04 06:05:12;;;;;;;4.03;0.77;;;-0.20;99.90;;;;;;5073703;28;20971;-81
2023/04/04 06:07:38;;;;;;;0.40;0.40;;;-0.10;99.90;;;;;;5073347;28;20416;-81
2023/04/04 06:10:07;;;;;;;0.47;0.47;;;-0.20;99.90;;;;;;5073090;28;20452;-80
2023/04/04 06:12:34;;;;;;;0.50;0.50;;;-0.10;99.90;;;;;;5073778;28;20446;-81
2023/04/04 06:15:00;;;;;;;0.50;0.40;;;0.00;99.90;;;;;;5073724;28;20450;-81
2023/04/04 06:17:28;;;;;;;1.53;0.73;;;0.00;99.90;;;;;;5073838;28;20423;-81
2023/04/04 06:19:55;;;;;;;0.30;0.30;;;0.10;99.90;;;;;;5073899;28;20477;-81
2023/04/04 06:22:22;;;;;;;0.30;0.30;;;0.10;99.90;;;;;;5073715;28;20441;-81
2023/04/04 06:24:49;;;;;;;0.30;0.30;;;0.30;99.90;;;;;;5073696;28;20450;-80
2023/04/04 06:27:15;;;;;;;0.30;0.30;;;0.40;99.90;;;;;;5073641;28;20457;-80
2023/04/04 06:29:42;;;;;;;0.50;0.50;;;0.70;99.90;;;;;;5073170;28;20493;-80
2023/04/04 06:32:10;;;;;;;0.30;0.30;;;1.20;99.90;;;;;;5073731;28;20481;-81
2023/04/04 06:34:38;;;;;;;0.40;0.33;;;1.90;99.90;;;;;;5073581;28;20449;-80
2023/04/04 06:37:05;;;;;;;0.33;0.27;;;2.50;99.90;;;;;;5073598;28;20415;-81
2023/04/04 06:39:33;;;;;;;0.40;0.30;;;3.10;99.90;;;;;;5073426;28;20831;-81
2023/04/04 06:42:00;;;;;;;1.37;1.00;;;3.40;99.90;;;;;;5073248;28;20929;-81
2023/04/04 06:44:27;;;;;;;0.30;0.30;;;3.50;99.90;;;;;;5073437;28;20453;-81
2023/04/04 06:46:54;;;;;;;0.40;0.40;;;3.40;99.90;;;;;;5073086;28;20451;-81
2023/04/04 06:49:20;;;;;;;0.30;0.30;;;3.20;99.90;;;;;;5072929;28;21080;-81
2023/04/04 06:51:51;;;;;;;0.50;0.43;;;2.90;99.90;;;;;;5073385;28;20450;-81
2023/04/04 06:54:18;;;;;;;0.70;0.70;;;2.70;99.90;;;;;;5073071;28;20778;-82
2023/04/04 06:56:44;;;;;;;0.67;0.40;;;2.40;99.90;;;;;;5073333;28;20448;-82
2023/04/04 06:59:11;;;;;;;0.80;0.70;;;2.20;99.90;;;;;;5073229;28;20469;-82
2023/04/04 07:01:38;;;;;;;0.70;0.63;;;2.10;99.90;;;;;;5072983;28;20506;-82
2023/04/04 07:04:05;;;;;;;0.40;0.33;;;2.00;99.90;;;;;;5073219;28;20450;-82
2023/04/04 07:06:31;;;;;;;0.30;0.30;;;2.00;99.90;;;;;;5073249;28;20442;-82
2023/04/04 07:09:00;;;;;;;0.40;0.40;;;2.10;99.90;;;;;;5073154;28;20466;-82
2023/04/04 07:11:28;;;;;;;0.30;0.30;;;2.20;99.90;;;;;;5073303;28;20419;-83
2023/04/04 07:13:55;;;;;;;0.43;0.43;;;2.30;99.90;;;;;;5073205;28;20444;-83
2023/04/04 07:16:21;;;;;;;0.50;0.50;;;2.40;99.90;;;;;;5072975;28;20925;-83
2023/04/04 07:18:48;;;;;;;0.50;0.50;;;2.30;99.90;;;;;;5072810;28;20964;-83
2023/04/04 07:21:16;;;;;;;0.40;0.40;;;2.40;99.90;;;;;;5076500;28;20449;-83
2023/04/04 07:23:42;;;;;;;0.40;0.37;;;2.60;99.90;;;;;;5077216;28;20441;-83
2023/04/04 07:26:11;;;;;;;3.50;0.90;;;2.80;99.90;;;;;;5077163;28;20440;-83
2023/04/04 07:28:37;;;;;;;0.40;0.40;;;3.10;99.90;;;;;;5077056;28;20477;-83
2023/04/04 07:31:04;;;;;;;0.40;0.40;;;3.30;99.70;;;;;;5076619;28;21003;-83
2023/04/04 07:33:31;;;;;;;0.40;0.40;;;3.80;98.90;;;;;;5076966;28;20448;-83
2023/04/04 07:35:58;;;;;;;0.40;0.40;;;4.40;97.30;;;;;;5076971;28;20847;-84
2023/04/04 07:38:26;;;;;;;0.40;0.30;;;4.80;97.60;;;;;;5076906;28;20540;-83
2023/04/04 07:40:53;;;;;;;0.63;0.63;;;4.90;97.10;;;;;;5077150;28;20560;-83
2023/04/04 07:43:21;;;;;;;1.37;0.80;;;5.20;96.20;;;;;;5076510;28;20948;-84
2023/04/04 07:45:48;;;;;;;0.80;0.50;;;5.30;95.10;;;;;;5076461;28;20534;-84
2023/04/04 07:48:14;;;;;;;1.43;0.50;;;5.40;95.60;;;;;;5076312;28;20449;-83
2023/04/04 07:50:41;;;;;;;0.53;0.53;;;5.70;95.10;;;;;;5076576;28;20477;-83
2023/04/04 07:53:08;;;;;;;0.40;0.30;;;6.00;94.30;;;;;;5076610;28;20948;-84
2023/04/04 07:55:35;;;;;;;0.40;0.40;;;6.20;92.90;;;;;;5076602;28;20449;-83
2023/04/04 07:58:01;;;;;;;0.50;0.50;;;6.10;92.70;;;;;;5076522;28;20460;-83
2023/04/04 08:00:29;;;;;;;0.60;0.50;;;6.00;92.20;;;;;;5076395;28;20465;-83
2023/04/04 08:02:58;;;;;;;0.40;0.37;;;5.90;92.60;;;;;;5076413;28;20441;-83
2023/04/04 08:05:24;;;;;;;1.93;0.97;;;5.70;92.60;;;;;;5076394;28;20449;-83
2023/04/04 08:07:51;;;;;;;1.30;1.00;;;5.60;93.30;;;;;;5076323;28;20452;-83
2023/04/04 08:10:20;;;;;;;0.77;0.50;;;5.50;93.50;;;;;;5076115;28;20489;-83
2023/04/04 08:12:47;;;;;;;0.97;0.70;;;5.20;93.10;;;;;;5076249;28;20448;-83
2023/04/04 08:15:15;;;;;;;0.40;0.40;;;4.90;93.60;;;;;;5076182;28;20518;-83
2023/04/04 08:17:43;;;;;;;0.83;0.57;;;4.80;93.50;;;;;;5076173;28;20457;-84
2023/04/04 08:20:11;;;;;;;0.40;0.40;;;4.80;94.70;;;;;;5076054;28;20468;-83
2023/04/04 08:22:38;;;;;;;0.40;0.40;;;4.80;94.20;;;;;;5075729;28;20441;-83
2023/04/04 08:25:05;;;;;;;1.33;0.97;;;4.90;93.90;;;;;;5076009;28;20445;-83
2023/04/04 08:27:32;;;;;;;0.40;0.40;;;4.80;93.60;;;;;;5075944;28;20488;-83
2023/04/04 08:29:59;;;;;;;0.93;0.40;;;4.80;94.90;;;;;;5075772;28;20485;-83
2023/04/04 08:32:26;;;;;;;0.30;0.30;;;4.80;93.90;;;;;;5075056;28;20454;-83
2023/04/04 08:34:54;;;;;;;1.17;0.40;;;4.80;94.10;;;;;;5075795;28;20445;-83
2023/04/04 08:37:21;;;;;;;0.70;0.70;;;5.00;94.20;;;;;;5075800;28;20491;-83
2023/04/04 08:39:47;;;;;;;1.03;0.70;;;4.80;94.10;;;;;;5075738;28;20835;-83
2023/04/04 08:42:19;;;;;;;0.40;0.40;;;4.90;93.80;;;;;;5075761;28;20450;-83
2023/04/04 08:44:49;;;;;;;0.47;0.47;;;5.10;93.70;;;;;;5075416;28;21022;-78
2023/04/04 08:47:16;;;;;;;0.40;0.40;;;5.30;92.60;;;;;;5075049;28;20492;-78
2023/04/04 08:49:45;;;;;;;0.37;0.30;;;5.50;92.50;;;;;;5075108;28;21085;-78
2023/04/04 08:52:18;;;;;;;0.47;0.47;;;5.50;91.90;;;;;;5075222;28;20794;-78
2023/04/04 08:54:45;;;;;;;0.80;0.77;;;5.60;92.10;;;;;;5075479;28;20438;-78
2023/04/04 08:57:12;;;;;;;0.30;0.30;;;5.80;91.70;;;;;;5075124;28;20865;-78
2023/04/04 08:59:39;;;;;;;0.70;0.70;;;5.80;91.90;;;;;;5075303;28;20836;-83
2023/04/04 09:02:16;;;;;;;0.70;0.70;;;6.10;91.50;;;;;;5075339;28;20450;-83
2023/04/04 09:04:45;;;;;;;0.63;0.63;;;6.70;90.80;;;;;;5075346;28;20436;-84
2023/04/04 09:07:14;;;;;;;0.40;0.30;;;7.60;90.30;;;;;;5075195;28;20446;-82
2023/04/04 09:09:44;;;;;;;1.27;0.80;;;9.20;85.30;;;;;;5074713;28;21012;-83
2023/04/04 09:12:13;;;;;;;0.50;0.50;;;11.00;78.60;;;;;;5075124;28;20499;-83
2023/04/04 09:14:41;;;;;;;0.30;0.30;;;12.40;70.20;;;;;;5074781;28;20441;-83
2023/04/04 09:17:09;;;;;;;2.00;1.67;;;13.20;65.10;;;;;;5075065;28;20434;-83
2023/04/04 09:19:36;;;;;;;0.90;0.77;;;13.70;62.00;;;;;;5074870;28;20539;-84
2023/04/04 09:22:07;;;;;;;0.80;0.80;;;13.70;58.10;;;;;;5074610;28;20952;-84
2023/04/04 09:24:40;;;;;;;1.03;0.93;;;13.30;56.30;;;;;;5075370;28;20499;-84
2023/04/04 09:27:09;;;;;;;0.63;0.60;;;13.20;56.80;;;;;;5074777;28;20438;-84
2023/04/04 09:29:37;;;;;;;1.13;0.70;;;13.70;57.10;;;;;;5074354;28;21029;-83
2023/04/04 09:32:04;;;;;;;0.80;0.80;;;14.20;54.60;;;;;;5074492;28;20798;-84
2023/04/04 09:34:32;;;;;;;3.13;0.53;;;13.70;50.80;;;;;;5074562;28;20460;-83
2023/04/04 09:36:59;;;;;;;1.07;0.97;;;13.50;51.20;;;;;;5074603;28;20479;-84
2023/04/04 09:39:26;;;;;;;2.47;0.70;;;13.40;50.10;;;;;;5074488;28;20461;-84
2023/04/04 09:41:54;;;;;;;1.63;1.00;;;12.90;49.70;;;;;;5074535;28;20450;-83
2023/04/04 09:44:22;;;;;;;1.23;0.80;;;11.30;51.80;;;;;;5074486;28;20449;-84
2023/04/04 09:46:51;;;;;;;1.80;0.87;;;10.90;53.50;;;;;;5074065;28;20930;-84
2023/04/04 09:49:20;;;;;;;0.50;0.50;;;11.70;53.10;;;;;;5074308;28;20576;-84
2023/04/04 09:51:49;;;;;;;0.60;0.60;;;12.10;52.40;;;;;;5074002;28;20869;-83
2023/04/04 09:54:21;;;;;;;0.50;0.47;;;12.60;51.90;;;;;;5074237;28;20449;-84
2023/04/04 09:56:48;;;;;;;1.07;0.73;;;12.70;51.20;;;;;;5074272;28;20487;-84
2023/04/04 09:59:17;;;;;;;1.17;0.70;;;13.20;50.80;;;;;;5074139;28;20469;-84
2023/04/04 10:01:45;;;;;;;1.00;0.67;;;13.40;49.90;;;;;;5073892;28;20941;-84
2023/04/04 10:04:14;;;;;;;0.60;0.60;;;13.20;50.40;;;;;;5074018;28;20453;-83
2023/04/04 10:06:44;;;;;;;1.17;0.67;;;12.60;52.30;;;;;;5074068;28;20442;-84
2023/04/04 10:09:11;;;;;;;1.83;1.17;;;13.50;53.80;;;;;;5073565;28;20486;-83
2023/04/04 10:11:38;;;;;;;0.60;0.60;;;13.70;50.30;;;;;;5073930;28;20449;-84
2023/04/04 10:14:05;;;;;;;2.33;0.90;;;13.30;49.20;;;;;;5073878;28;20449;-83
2023/04/04 10:16:36;;;;;;;1.60;1.17;;;13.50;50.30;;;;;;5073892;28;20441;-84
2023/04/04 10:19:06;;;;;;;4.10;0.90;;;13.40;51.30;;;;;;5073805;28;20564;-83
2023/04/04 10:21:33;;;;;;;1.23;0.80;;;12.80;50.30;;;;;;5073765;28;20442;-84
2023/04/04 10:24:03;;;;;;;2.60;0.60;;;12.80;49.80;;;;;;5073482;28;20448;-83
2023/04/04 10:26:30;;;;;;;0.57;0.57;;;12.60;50.80;;;;;;5073767;28;20790;-84
2023/04/04 10:28:57;;;;;;;1.10;0.57;;;13.10;52.20;;;;;;5073590;28;20449;-83
2023/04/04 10:31:25;;;;;;;0.80;0.80;;;13.50;50.20;;;;;;5073716;28;20433;-83
2023/04/04 10:34:03;;;;;;;1.00;0.60;;;13.30;51.20;;;;;;5073400;28;20442;-83
2023/04/04 10:36:34;;;;;;;0.80;0.80;;;13.60;48.70;;;;;;5073691;28;20452;-84
2023/04/04 10:39:09;;;;;;;0.50;0.50;;;13.50;48.50;;;;;;5073812;28;20910;-84
2023/04/04 10:41:37;;;;;;;6.10;1.73;;;13.90;49.20;;;;;;5073609;28;20429;-84
2023/04/04 10:44:13;;;;;;;1.40;1.27;;;14.20;49.50;;;;;;5073996;28;21033;-84
2023/04/04 10:46:42;;;;;;;1.40;0.70;;;14.50;48.10;;;;;;5073080;28;21006;-84
2023/04/04 10:49:11;;;;;;;1.03;0.87;;;14.40;49.20;;;;;;5073339;28;20469;-84
2023/04/04 10:51:39;;;;;;;0.60;0.60;;;14.90;47.90;;;;;;5073482;28;20456;-83
2023/04/04 10:54:06;;;;;;;1.50;1.30;;;15.10;48.90;;;;;;5073039;28;20452;-83
2023/04/04 10:56:34;;;;;;;11.50;1.00;;;15.90;45.90;;;;;;5073463;28;20869;-84
2023/04/04 10:59:12;;;;;;;0.80;0.80;;;16.70;44.70;;;;;;5073297;28;20449;-84
2023/04/04 11:01:49;;;;;;;0.70;0.70;;;17.60;44.00;;;;;;5073365;28;20445;-84
2023/04/04 11:04:20;;;;;;;0.63;0.60;;;18.40;45.40;;;;;;5073344;28;20476;-84
2023/04/04 11:07:15;;;;;;;1.90;1.10;;;18.80;42.00;;;;;;5072993;28;20859;-85
2023/04/04 11:09:52;;;;;;;0.80;0.80;;;18.10;40.90;;;;;;5072744;28;20492;-83
2023/04/04 11:12:27;;;;;;;1.60;0.80;;;16.80;44.20;;;;;;5072833;28;20821;-84
2023/04/04 11:15:06;;;;;;;7.20;0.93;;;15.40;44.10;;;;;;5073037;28;20444;-85
2023/04/04 11:18:01;;;;;;;0.67;0.67;;;13.90;48.10;;;;;;5073219;28;20438;-84
2023/04/04 11:20:32;;;;;;;0.60;0.60;;;12.40;47.20;;;;;;5059414;28;20509;-84
2023/04/04 11:23:03;;;;;;;1.47;0.70;;;11.20;48.60;;;;;;5073177;28;20436;-84
2023/04/04 11:25:36;;;;;;;1.10;0.60;;;10.40;48.90;;;;;;5072772;28;20495;-84
2023/04/04 11:28:07;;;;;;;0.87;0.67;;;9.80;50.80;;;;;;5073113;28;20437;-84
2023/04/04 11:30:47;;;;;;;1.23;0.70;;;9.40;52.10;;;;;;5072855;28;20512;-83
2023/04/04 11:33:14;;;;;;;1.33;0.70;;;9.20;54.70;;;;;;5073064;28;20441;-84
2023/04/04 11:35:47;;;;;;;4.97;1.17;;;9.10;53.70;;;;;;5072977;28;20791;-83
2023/04/04 11:38:15;;;;;;;2.40;1.07;;;9.00;54.30;;;;;;5072984;28;20840;-83
2023/04/04 11:40:52;;;;;;;0.60;0.60;;;8.80;54.20;;;;;;5072941;28;20500;-83
2023/04/04 11:43:19;;;;;;;0.73;0.67;;;8.90;58.40;;;;;;5072881;28;20441;-83
2023/04/04 11:45:46;;;;;;;0.80;0.60;;;8.90;57.00;;;;;;5072556;28;20500;-83
2023/04/04 11:48:15;;;;;;;1.47;1.37;;;9.00;58.60;;;;;;5072878;28;20456;-83
2023/04/04 11:50:48;;;;;;;3.80;1.00;;;9.00;56.30;;;;;;5072697;28;20504;-83
2023/04/04 11:53:16;;;;;;;2.37;1.53;;;9.20;55.80;;;;;;5072903;28;20437;-83
2023/04/04 11:55:46;;;;;;;1.80;0.70;;;9.30;55.50;;;;;;5072852;28;20506;-83
2023/04/04 11:58:14;;;;;;;0.80;0.70;;;9.30;54.20;;;;;;5072806;28;20441;-83
2023/04/04 12:00:42;;;;;;;1.27;1.00;;;9.30;54.20;;;;;;5072402;28;20812;-83
2023/04/04 12:03:11;;;;;;;0.63;0.60;;;9.10;53.80;;;;;;5072401;28;20828;-83
2023/04/04 12:05:37;;;;;;;0.50;0.50;;;8.80;54.30;;;;;;5072385;28;20458;-84
2023/04/04 12:08:07;;;;;;;0.60;0.60;;;8.70;55.60;;;;;;5075678;28;20459;-83
2023/04/04 12:10:35;;;;;;;1.07;0.60;;;8.70;56.20;;;;;;5076103;28;20488;-83
2023/04/04 12:13:06;;;;;;;0.97;0.90;;;8.80;57.80;;;;;;5076262;28;20811;-83
2023/04/04 12:15:34;;;;;;;0.70;0.70;;;8.80;55.10;;;;;;5076187;28;20465;-84
2023/04/04 12:18:01;;;;;;;6.87;0.60;;;8.60;54.70;;;;;;5076154;28;20499;-83
2023/04/04 12:20:29;;;;;;;2.20;1.17;;;8.50;56.10;;;;;;5075958;28;20471;-83
2023/04/04 12:22:56;;;;;;;0.50;0.50;;;8.40;56.10;;;;;;5076018;28;20449;-84
2023/04/04 12:25:27;;;;;;;0.80;0.50;;;8.20;55.90;;;;;;5075821;28;20945;-85
2023/04/04 12:27:54;;;;;;;0.83;0.70;;;8.20;56.20;;;;;;5076122;28;20495;-85
2023/04/04 12:30:21;;;;;;;2.40;1.27;;;7.90;55.60;;;;;;5075509;28;20481;-85
2023/04/04 12:32:50;;;;;;;0.83;0.80;;;7.80;56.90;;;;;;5076027;28;20449;-85
2023/04/04 12:35:17;;;;;;;0.60;0.60;;;7.80;56.00;;;;;;5076045;28;20440;-85
2023/04/04 12:37:58;;;;;;;0.50;0.40;;;7.90;56.20;;;;;;5075775;28;20537;-85
2023/04/04 12:40:30;;;;;;;1.30;1.03;;;7.70;55.30;;;;;;5075298;28;20471;-85
2023/04/04 12:42:57;;;;;;;1.47;0.90;;;7.30;57.10;;;;;;5075477;28;20457;-85
2023/04/04 12:45:26;;;;;;;0.40;0.40;;;7.10;56.90;;;;;;5075517;28;20430;-84
2023/04/04 12:47:53;;;;;;;0.63;0.63;;;7.00;58.50;;;;;;5075713;28;20450;-84
2023/04/04 12:50:22;;;;;;;0.80;0.80;;;7.00;58.10;;;;;;5075499;28;20489;-85
2023/04/04 12:52:52;;;;;;;0.50;0.50;;;7.00;58.10;;;;;;5075279;28;20944;-85
2023/04/04 12:55:22;;;;;;;1.07;0.47;;;7.00;59.70;;;;;;5075624;28;20511;-85
2023/04/04 12:57:51;;;;;;;0.37;0.30;;;7.10;58.50;;;;;;5075514;28;20430;-84